INFORMAÇÕES DO AERODROMO
Icao Aerodromo YPDN Nome do Aerodromo Darwin International Airport Cidade Darwin
Código GPS YPDN Elevação Média 103 ft Tipo de Aerodromo Aeroporto Médio Porte

INFORMAÇÃO DE PISTA
Pista 11 Comprimento da Pista 11004 ft Largura da Pista 197 ft
Elevação da Pista 96 ft Distância de Area de Escape da Pista 0 ft Orientação da Pista 109
Pista 29 Comprimento da Pista 11004 ft Largura da Pista 197 ft
Elevação da Pista 81 ft Distância de Area de Escape da Pista 0 ft Orientação da Pista 289
Pista 18 Comprimento da Pista 5000 ft Largura da Pista 98 ft
Elevação da Pista 96 ft Distância de Area de Escape da Pista 0 ft Orientação da Pista 180
Pista 36 Comprimento da Pista 5000 ft Largura da Pista 98 ft
Elevação da Pista 91 ft Distância de Area de Escape da Pista 0 ft Orientação da Pista 360

FREQUÊNCIAS DO AERODROMO
Tipo A/D Nome APP Frequência 125.2 MHZ
Tipo ARTC Nome BRISBANE C Frequência 118.15 MHZ
Tipo ATIS Nome ATIS Frequência 112.6 MHZ
Tipo CLD Nome CLNC DEL Frequência 126.8 MHZ
Tipo DEP Nome DEP Frequência 123 MHZ
Tipo GND Nome GND Frequência 121.8 MHZ
Tipo MISC Nome RAAF AIR O Frequência 897.4 MHZ
Tipo TWR Nome TWR Frequência 133.1 MHZ

INFORMAÇÕES DE NAVEGAÇÃO PRÓXIMO AO AERODROMO
Tipo NDB Nome Bagot Frequência 308 KHZ
Tipo TACAN Nome Darwin Frequência 113700 KHZ
Tipo VOR-DME Nome Darwin Frequência 112600 KHZ
Tipo NDB Nome Darwin Frequência 344 KHZ
Tipo NDB Nome Howard Springs Frequência 257 KHZ

Informações de Meteorologia(METAR atual)
METAR DE YPDN
ADDS - METARS form results

(1405 UTC 12 December 2018)
Data provider http://aviationweather.gov/metar/data/
 
METAR text: YPDN 121400Z 21021KT 5000 RA VCTS FEW005 BKN032 FEW009CB 23/22 Q1008
Conditions at: YPDN (DARWIN (CIV/MIL), AU) observed 1400 UTC 12 December 2018
Temperature: 23.0°C (73°F)
Dewpoint: 22.0°C (72°F) [RH = 94%]
Pressure (altimeter): 29.76 inches Hg (1008.0 mb)
Winds: from the SSW (210 degrees) at 24 MPH (21 knots; 10.8 m/s)
Visibility: 3 miles ( 5 km)
Ceiling: 3200 feet AGL
Clouds: few clouds at 500 feet AGL
broken clouds at 3200 feet AGL
few clouds at 900 feet AGL
Weather: RA VCTS  (moderate rain, thunderstorm in vicinity)

METAR text: YPDN 121356Z 21021KT 5000 -RA VCTS FEW005 SCT009CB OVC039 23/22 Q1008
Conditions at: YPDN (DARWIN (CIV/MIL), AU) observed 1356 UTC 12 December 2018
Temperature: 23.0°C (73°F)
Dewpoint: 22.0°C (72°F) [RH = 94%]
Pressure (altimeter): 29.76 inches Hg (1008.0 mb)
Winds: from the SSW (210 degrees) at 24 MPH (21 knots; 10.8 m/s)
Visibility: 3 miles ( 5 km)
Ceiling: 3900 feet AGL
Clouds: few clouds at 500 feet AGL
scattered clouds at 900 feet AGL
overcast cloud deck at 3900 feet AGL
Weather: -RA VCTS  (light rain, thunderstorm in vicinity)

METAR text: YPDN 121340Z 18027G39KT 6000 -TSRA SCT010CB BKN035 24/21 Q1009
Conditions at: YPDN (DARWIN (CIV/MIL), AU) observed 1340 UTC 12 December 2018
Temperature: 24.0°C (75°F)
Dewpoint: 21.0°C (70°F) [RH = 83%]
Pressure (altimeter): 29.79 inches Hg (1009.0 mb)
Winds: from the S (180 degrees) at 31 MPH (27 knots; 13.9 m/s)
gusting to 45 MPH (39 knots; 20.1 m/s)
Visibility: 4 miles ( 6 km)
Ceiling: 3500 feet AGL
Clouds: scattered clouds at 1000 feet AGL
broken clouds at 3500 feet AGL
Weather: -TSRA  (light rain associated with thunderstorm(s))

METAR text: YPDN 121334Z 19030KT 190V260 9999 -TSRA SCT018CB BKN035 BKN350 27/21 Q1009
Conditions at: YPDN (DARWIN (CIV/MIL), AU) observed 1334 UTC 12 December 2018
Temperature: 27.0°C (81°F)
Dewpoint: 21.0°C (70°F) [RH = 70%]
Pressure (altimeter): 29.79 inches Hg (1009.0 mb)
Winds: from the S (190 degrees) at 34 MPH (30 knots; 15.4 m/s)
Visibility: 6 or more miles (10+ km)
Ceiling: 3500 feet AGL
Clouds: scattered clouds at 1800 feet AGL
broken clouds at 3500 feet AGL
broken clouds at 35000 feet AGL
Weather: -TSRA  (light rain associated with thunderstorm(s))

METAR text: YPDN 121333Z 22018G38KT 190V260 9999 -TSRA SCT018CB SCT035 BKN350 28/21 Q1009
Conditions at: YPDN (DARWIN (CIV/MIL), AU) observed 1333 UTC 12 December 2018
Temperature: 28.0°C (82°F)
Dewpoint: 21.0°C (70°F) [RH = 66%]
Pressure (altimeter): 29.79 inches Hg (1009.0 mb)
Winds: from the SW (220 degrees) at 21 MPH (18 knots; 9.3 m/s)
gusting to 44 MPH (38 knots; 19.5 m/s)
Visibility: 6 or more miles (10+ km)
Ceiling: 35000 feet AGL
Clouds: scattered clouds at 1800 feet AGL
scattered clouds at 3500 feet AGL
broken clouds at 35000 feet AGL
Weather: -TSRA  (light rain associated with thunderstorm(s))

METAR text: YPDN 121332Z 22015G25KT 200V270 9999 TS SCT016CB BKN140 BKN350 29/22 Q1009
Conditions at: YPDN (DARWIN (CIV/MIL), AU) observed 1332 UTC 12 December 2018
Temperature: 29.0°C (84°F)
Dewpoint: 22.0°C (72°F) [RH = 66%]
Pressure (altimeter): 29.79 inches Hg (1009.0 mb)
Winds: from the SW (220 degrees) at 17 MPH (15 knots; 7.7 m/s)
gusting to 29 MPH (25 knots; 12.9 m/s)
Visibility: 6 or more miles (10+ km)
Ceiling: 14000 feet AGL
Clouds: scattered clouds at 1600 feet AGL
broken clouds at 14000 feet AGL
broken clouds at 35000 feet AGL
Weather: TS  (thunderstorm)

METAR text: YPDN 121330Z 23014KT 9999 VCTS FEW018CB BKN350 31/25 Q1008
Conditions at: YPDN (DARWIN (CIV/MIL), AU) observed 1330 UTC 12 December 2018
Temperature: 31.0°C (88°F)
Dewpoint: 25.0°C (77°F) [RH = 71%]
Pressure (altimeter): 29.76 inches Hg (1008.0 mb)
Winds: from the SW (230 degrees) at 16 MPH (14 knots; 7.2 m/s)
Visibility: 6 or more miles (10+ km)
Ceiling: 35000 feet AGL
Clouds: few clouds at 1800 feet AGL
broken clouds at 35000 feet AGL
Weather: VCTS  (thunderstorm in vicinity)

Forecast for: YPDN (DARWIN (CIV/MIL), AU)
Text: TAF YPDN 121108Z 1212/1318 29014KT 9999 SCT020
Forecast period: 1200 to 2200 UTC 12 December 2018
Forecast type: FROM: standard forecast or significant change
Winds: from the WNW (290 degrees) at 16 MPH (14 knots; 7.2 m/s)
Visibility: 6 or more miles 10+ km)
Ceiling: at least 12,000 feet AGL
Clouds: scattered clouds at 2000 feet AGL
Weather: no significant weather forecast for this period
Text: FM122200 28017G27KT 9999 SCT030
Forecast period: 2200 UTC 12 December 2018 to 0900 UTC 13 December 2018
Forecast type: FROM: standard forecast or significant change
Winds: from the W (280 degrees) at 20 MPH (17 knots; 8.7 m/s)
gusting to 31 MPH (27 knots; 13.9 m/s)
Visibility: 6 or more miles 10+ km)
Ceiling: at least 12,000 feet AGL
Clouds: scattered clouds at 3000 feet AGL
Weather: no significant weather forecast for this period
Text: FM130900 28013KT 9999 SCT020
Forecast period: 0900 to 1800 UTC 13 December 2018
Forecast type: FROM: standard forecast or significant change
Winds: from the W (280 degrees) at 15 MPH (13 knots; 6.7 m/s)
Visibility: 6 or more miles 10+ km)
Ceiling: at least 12,000 feet AGL
Clouds: scattered clouds at 2000 feet AGL
Weather: no significant weather forecast for this period
Text: TEMPO 1213/1217 VRB25G45KT 1000 TSRA BKN010 SCT020CB
Forecast period: 1300 to 1700 UTC 12 December 2018
Forecast type: TEMPORARY: The following changes expected for less than half the time period
Winds: variable direction winds at 29 MPH (25 knots; 12.9 m/s)
gusting to 52 MPH (45 knots; 23.1 m/s)
Visibility: 0.62 miles (1.00 km)
Ceiling: 1000 feet AGL
Clouds: broken clouds at 1000 feet AGL
scattered clouds at 2000 feet AGL
Weather: TSRA  (rain associated with thunderstorm(s))
Text: PROB30
Forecast period: 1300 to 1800 UTC 13 December 2018
Forecast type: TEMPORARY: The following changes expected for less than half the time period
Winds: variable direction winds at 29 MPH (25 knots; 12.9 m/s)
gusting to 52 MPH (45 knots; 23.1 m/s)
Visibility: 0.62 miles (1.00 km)
Ceiling: 1000 feet AGL
Clouds: broken clouds at 1000 feet AGL
scattered clouds at 2000 feet AGL
Weather: TSRA  (rain associated with thunderstorm(s))

MAPA DO AERODROMO


Desenvolvido por Virtual Airlines Manager




Modificado por Servidor Brasil Amigos